createdAt,value
2022-08-02T00:02:55.525Z,96377.38
2022-08-02T00:05:57.165Z,96376.72
2022-08-02T00:08:59.069Z,96350.47
2022-08-02T00:12:03.175Z,96367.75
2022-08-02T00:15:06.963Z,96367.13
2022-08-02T00:18:08.697Z,96351.94
2022-08-02T00:21:12.820Z,96360.44
2022-08-02T00:24:28.480Z,96339.84
2022-08-02T00:27:31.387Z,96354.44
2022-08-02T00:30:33.218Z,96360.91
2022-08-02T00:34:28.016Z,96354.22
2022-08-02T00:36:57.233Z,96356.06
2022-08-02T00:39:58.871Z,96352.31
2022-08-02T00:43:11.349Z,96343.34
2022-08-02T00:46:13.885Z,96359.38
2022-08-02T00:49:15.660Z,96332.13
2022-08-02T00:52:18.380Z,96353.53
2022-08-02T00:55:23.553Z,96354.38
2022-08-02T00:58:33.544Z,96353.94
2022-08-02T01:01:56.387Z,96365.41
2022-08-02T01:04:59.356Z,96361.41
2022-08-02T01:08:02.253Z,96370.34
2022-08-02T01:11:03.946Z,96361.56
2022-08-02T01:14:11.419Z,96352.84
2022-08-02T01:18:02.108Z,96358.91
2022-08-02T01:21:47.918Z,96354.34
2022-08-02T01:25:08.033Z,96357.44
2022-08-02T01:28:32.678Z,96346.38
2022-08-02T01:31:57.334Z,96363.03
2022-08-02T01:35:10.403Z,96348.47
2022-08-02T01:38:19.491Z,96341.31
2022-08-02T01:41:25.512Z,96353.19
2022-08-02T01:44:30.537Z,96366.50
2022-08-02T01:47:35.819Z,96360.03
2022-08-02T01:50:38.514Z,96362.31
2022-08-02T01:53:45.897Z,96345.84
2022-08-02T01:56:50.066Z,96355.41
2022-08-02T01:59:55.061Z,96340.19
2022-08-02T02:02:58.908Z,96336.59
2022-08-02T02:06:03.704Z,96348.22
2022-08-02T02:09:06.600Z,96340.91
2022-08-02T02:12:14.715Z,96360.31
2022-08-02T02:15:17.528Z,96361.53
2022-08-02T02:18:23.841Z,96350.31
2022-08-02T02:21:25.534Z,96351.53
2022-08-02T02:24:27.370Z,96336.47
2022-08-02T02:27:30.583Z,96353.56
2022-08-02T02:30:33.775Z,96345.41
2022-08-02T02:33:51.137Z,96346.44
2022-08-02T02:36:53.551Z,96339.13
2022-08-02T02:39:58.070Z,96342.41
2022-08-02T02:43:01.533Z,96339.06
2022-08-02T02:46:05.469Z,96336.69
2022-08-02T02:49:10.152Z,96337.75
2022-08-02T02:52:14.667Z,96352.88
2022-08-02T02:55:18.332Z,96356.47
2022-08-02T02:58:20.573Z,96341.00
2022-08-02T03:01:56.168Z,96357.06
2022-08-02T03:04:57.222Z,96344.31
2022-08-02T03:07:59.673Z,96349.88
2022-08-02T03:11:01.600Z,96355.03
2022-08-02T03:14:10.699Z,96368.09
2022-08-02T03:17:12.431Z,96358.28
2022-08-02T03:20:17.023Z,96357.19
2022-08-02T03:23:18.682Z,96366.38
2022-08-02T03:26:21.464Z,96354.25
2022-08-02T03:29:23.253Z,96348.97
2022-08-02T03:32:25.393Z,96359.75
2022-08-02T03:35:27.150Z,96344.38
2022-08-02T03:38:30.600Z,96348.50
2022-08-02T03:41:33.563Z,96353.28
2022-08-02T03:44:37.996Z,96349.47
2022-08-02T03:47:40.229Z,96355.44
2022-08-02T03:50:43.733Z,96367.97
2022-08-02T03:53:45.846Z,96362.94
2022-08-02T03:56:47.822Z,96362.50
2022-08-02T03:59:49.445Z,96353.88
2022-08-02T04:02:51.237Z,96367.00
2022-08-02T04:06:03.285Z,96371.09
2022-08-02T04:09:05.926Z,96381.47
2022-08-02T04:12:07.925Z,96374.91
2022-08-02T04:15:12.698Z,96373.56
2022-08-02T04:18:14.748Z,96365.50
2022-08-02T04:21:19.482Z,96368.84
2022-08-02T04:24:25.720Z,96366.50
2022-08-02T04:27:50.491Z,96356.13
2022-08-02T04:30:51.347Z,96378.91
2022-08-02T04:33:53.201Z,96378.91
2022-08-02T04:36:55.005Z,96374.16
2022-08-02T04:39:56.525Z,96376.00
2022-08-02T04:42:58.071Z,96377.69
2022-08-02T04:46:02.699Z,96386.63
2022-08-02T04:49:07.059Z,96385.38
2022-08-02T04:52:08.874Z,96388.28
2022-08-02T04:55:10.720Z,96391.44
2022-08-02T04:58:38.868Z,96396.63
2022-08-02T05:01:39.246Z,96397.72
2022-08-02T05:04:43.327Z,96405.06
2022-08-02T05:07:45.060Z,96406.34
2022-08-02T05:10:48.902Z,96385.56
2022-08-02T05:13:58.064Z,96406.03
2022-08-02T05:17:01.191Z,96408.19
2022-08-02T05:20:04.024Z,96417.19
2022-08-02T05:23:05.548Z,96418.06
2022-08-02T05:26:07.087Z,96414.44
2022-08-02T05:29:08.619Z,96412.63
2022-08-02T05:32:10.344Z,96402.94
2022-08-02T05:35:12.672Z,96409.09
2022-08-02T05:38:14.354Z,96400.03
2022-08-02T05:41:19.086Z,96397.84
2022-08-02T05:44:20.829Z,96407.94
2022-08-02T05:47:24.156Z,96405.53
2022-08-02T05:50:25.929Z,96407.03
2022-08-02T05:54:12.567Z,96412.72
2022-08-02T05:57:26.583Z,96415.91
2022-08-02T06:00:31.191Z,96405.56
2022-08-02T06:03:39.397Z,96408.97
2022-08-02T06:06:44.711Z,96398.38
2022-08-02T06:09:49.250Z,96404.06
2022-08-02T06:13:14.672Z,96410.78
2022-08-02T06:16:16.610Z,96416.84
2022-08-02T06:19:46.992Z,96407.94
2022-08-02T06:22:55.718Z,96412.13
2022-08-02T06:25:58.093Z,96407.38
2022-08-02T06:28:59.700Z,96413.66
2022-08-02T06:32:02.342Z,96401.63
2022-08-02T06:35:05.591Z,96388.50
2022-08-02T06:38:09.749Z,96385.19
2022-08-02T06:41:14.630Z,96406.03
2022-08-02T06:47:38.358Z,96406.72
2022-08-02T06:50:41.948Z,96408.38
2022-08-02T06:53:43.758Z,96413.16
2022-08-02T06:56:46.672Z,96405.03
2022-08-02T06:59:49.463Z,96403.59
2022-08-02T07:02:52.651Z,96392.31
2022-08-02T07:05:55.644Z,96392.09
2022-08-02T07:09:19.508Z,96389.81
2022-08-02T07:12:19.496Z,96393.97
2022-08-02T07:15:21.545Z,96395.59
2022-08-02T07:18:24.858Z,96401.63
2022-08-02T07:21:57.095Z,96390.59
2022-08-02T07:24:47.949Z,96396.63
2022-08-02T07:27:49.490Z,96402.06
2022-08-02T07:30:51.051Z,96400.38
2022-08-02T07:33:55.361Z,96395.78
2022-08-02T07:36:57.503Z,96407.41
2022-08-02T07:40:02.881Z,96403.84
2022-08-02T07:43:07.536Z,96410.28
2022-08-02T07:46:09.227Z,96397.53
2022-08-02T07:49:18.446Z,96389.13
2022-08-02T07:52:20.759Z,96402.16
2022-08-02T07:55:22.371Z,96404.41
2022-08-02T07:58:23.978Z,96402.53
2022-08-02T08:01:25.590Z,96385.78
2022-08-02T08:04:27.371Z,96393.66
2022-08-02T08:07:29.629Z,96377.84
2022-08-02T08:10:32.266Z,96393.81
2022-08-02T08:13:34.217Z,96396.47
2022-08-02T08:16:36.041Z,96379.72
2022-08-02T08:19:50.977Z,96388.66
2022-08-02T08:23:00.426Z,96377.28
2022-08-02T08:26:02.695Z,96376.97
2022-08-02T08:29:07.377Z,96381.28
2022-08-02T08:32:18.443Z,96393.94
2022-08-02T08:35:23.970Z,96390.78
2022-08-02T08:38:25.663Z,96392.38
2022-08-02T08:41:30.426Z,96389.81
2022-08-02T08:44:33.605Z,96387.63
2022-08-02T08:47:38.688Z,96389.38
2022-08-02T08:50:53.304Z,96375.91
2022-08-02T08:54:04.433Z,96381.22
2022-08-02T08:57:08.301Z,96381.50
2022-08-02T09:00:16.240Z,96385.13
2022-08-02T09:03:18.881Z,96384.31
2022-08-02T09:06:21.361Z,96385.22
2022-08-02T09:09:25.992Z,96379.75
2022-08-02T09:12:27.654Z,96392.69
2022-08-02T09:15:29.346Z,96394.38
2022-08-02T09:18:34.689Z,96398.66
2022-08-02T09:21:38.192Z,96381.38
2022-08-02T09:24:45.902Z,96398.97
2022-08-02T09:27:49.496Z,96387.72
2022-08-02T09:30:57.277Z,96397.09
2022-08-02T09:34:01.910Z,96385.84
2022-08-02T09:37:03.670Z,96404.94
2022-08-02T09:40:06.925Z,96406.00
2022-08-02T09:43:09.776Z,96411.22
2022-08-02T09:46:12.933Z,96394.38
2022-08-02T09:49:16.854Z,96397.81
2022-08-02T09:52:43.119Z,96408.69
2022-08-02T09:55:56.538Z,96410.59
2022-08-02T09:58:58.116Z,96404.19
2022-08-02T10:02:17.645Z,96407.78
2022-08-02T10:05:21.522Z,96400.91
2022-08-02T10:08:25.523Z,96395.94
2022-08-02T10:11:28.481Z,96391.44
2022-08-02T10:14:30.193Z,96399.97
2022-08-02T10:17:32.104Z,96401.25
2022-08-02T10:20:44.546Z,96403.53
2022-08-02T10:23:49.177Z,96386.69
2022-08-02T10:26:51.204Z,96386.81
2022-08-02T10:29:57.747Z,96382.03
2022-08-02T10:33:00.711Z,96389.41
2022-08-02T10:36:06.877Z,96383.09
2022-08-02T10:39:10.487Z,96380.88
2022-08-02T10:42:33.671Z,96374.22
2022-08-02T10:45:35.502Z,96379.34
2022-08-02T10:49:37.483Z,96362.16
2022-08-02T10:52:32.293Z,96357.16
2022-08-02T10:55:45.274Z,96352.16
2022-08-02T10:58:46.876Z,96346.16
2022-08-02T11:01:48.730Z,96341.34
2022-08-02T11:04:50.197Z,96338.56
2022-08-02T11:07:51.696Z,96332.63
2022-08-02T11:11:01.211Z,96340.31
2022-08-02T11:14:07.416Z,96331.88
2022-08-02T11:17:19.578Z,96333.81
2022-08-02T11:20:22.848Z,96342.75
2022-08-02T11:23:44.378Z,96332.69
2022-08-02T11:26:47.792Z,96342.38
2022-08-02T11:29:50.108Z,96335.16
2022-08-02T11:33:00.949Z,96339.13
2022-08-02T11:36:05.449Z,96329.81
2022-08-02T11:39:12.486Z,96328.09
2022-08-02T11:42:17.322Z,96321.22
2022-08-02T11:45:29.321Z,96328.22
2022-08-02T11:48:36.636Z,96325.56
2022-08-02T11:51:38.703Z,96315.53
2022-08-02T11:54:44.130Z,96317.91
2022-08-02T11:58:02.885Z,96319.13
2022-08-02T12:01:07.091Z,96314.53
2022-08-02T12:04:09.097Z,96309.88
2022-08-02T12:07:10.975Z,96320.13
2022-08-02T12:10:18.786Z,96318.53
2022-08-02T12:13:20.984Z,96314.78
2022-08-02T12:16:42.606Z,96309.13
2022-08-02T12:19:44.587Z,96318.31
2022-08-02T12:22:46.205Z,96310.91
2022-08-02T12:26:06.481Z,96313.38
2022-08-02T12:29:08.285Z,96313.66
2022-08-02T12:32:23.987Z,96311.38
2022-08-02T12:35:30.908Z,96308.81
2022-08-02T12:38:32.454Z,96307.19
2022-08-02T12:41:34.390Z,96303.84
2022-08-02T12:44:39.055Z,96309.38
2022-08-02T12:47:49.600Z,96311.66
2022-08-02T12:50:51.288Z,96304.31
2022-08-02T12:53:58.861Z,96299.03
2022-08-02T12:57:16.464Z,96295.09
2022-08-02T13:00:28.799Z,96295.22
2022-08-02T13:04:10.056Z,96281.81
2022-08-02T13:06:52.316Z,96279.41
2022-08-02T13:10:00.355Z,96279.19
2022-08-02T13:13:05.370Z,96280.91
2022-08-02T13:16:08.572Z,96283.16
2022-08-02T13:19:10.546Z,96282.88
2022-08-02T13:22:12.242Z,96273.25
2022-08-02T13:25:13.985Z,96267.25
2022-08-02T13:28:15.554Z,96263.41
2022-08-02T13:31:36.043Z,96259.53
2022-08-02T13:34:38.386Z,96261.44
2022-08-02T13:37:41.922Z,96255.97
2022-08-02T13:41:04.794Z,96253.75
2022-08-02T13:44:10.290Z,96253.22
2022-08-02T13:47:12.850Z,96249.63
2022-08-02T13:50:14.464Z,96242.41
2022-08-02T13:53:16.222Z,96240.97
2022-08-02T13:56:17.969Z,96249.44
2022-08-02T13:59:55.131Z,96249.97
2022-08-02T14:02:41.146Z,96240.34
2022-08-02T14:05:47.313Z,96235.66
2022-08-02T14:08:50.381Z,96238.34
2022-08-02T14:11:52.106Z,96234.41
2022-08-02T14:14:53.626Z,96240.75
2022-08-02T14:17:55.175Z,96233.78
2022-08-02T14:20:56.766Z,96238.34
2022-08-02T14:23:58.974Z,96235.66
2022-08-02T14:27:01.756Z,96237.13
2022-08-02T14:30:04.118Z,96240.13
2022-08-02T14:33:05.669Z,96246.81
2022-08-02T14:36:07.361Z,96234.94
2022-08-02T14:39:09.534Z,96233.66
2022-08-02T14:42:11.454Z,96227.91
2022-08-02T14:45:13.336Z,96229.22
2022-08-02T14:48:14.836Z,96224.94
2022-08-02T14:51:16.939Z,96224.50
2022-08-02T14:54:18.566Z,96228.59
2022-08-02T14:57:20.509Z,96220.59
2022-08-02T15:00:22.100Z,96221.53
2022-08-02T15:03:23.757Z,96222.41
2022-08-02T15:06:28.951Z,96219.81
2022-08-02T15:09:31.017Z,96220.13
2022-08-02T15:12:32.636Z,96225.94
2022-08-02T15:15:42.190Z,96216.63
2022-08-02T15:18:45.687Z,96217.50
2022-08-02T15:21:52.667Z,96214.88
2022-08-02T15:25:00.136Z,96217.78
2022-08-02T15:28:01.858Z,96197.81
2022-08-02T15:31:03.739Z,96214.28
2022-08-02T15:34:06.141Z,96218.25
2022-08-02T15:37:08.207Z,96215.84
2022-08-02T15:40:10.546Z,96210.06
2022-08-02T15:43:12.190Z,96204.69
2022-08-02T15:46:14.011Z,96201.34
2022-08-02T15:49:15.664Z,96206.09
2022-08-02T15:52:17.402Z,96213.22
2022-08-02T15:55:19.652Z,96210.53
2022-08-02T15:58:22.455Z,96205.81
2022-08-02T16:01:32.195Z,96204.00
2022-08-02T16:04:40.298Z,96207.47
2022-08-02T16:07:41.947Z,96199.56
2022-08-02T16:10:44.120Z,96201.44
2022-08-02T16:13:55.164Z,96196.81
2022-08-02T16:16:57.235Z,96201.84
2022-08-02T16:19:59.064Z,96202.13
2022-08-02T16:23:00.765Z,96195.00
2022-08-02T16:26:06.179Z,96204.44
2022-08-02T16:29:07.957Z,96182.25
2022-08-02T16:32:09.978Z,96182.22
2022-08-02T16:35:12.463Z,96194.25
2022-08-02T16:38:14.135Z,96178.00
2022-08-02T16:41:16.367Z,96183.19
2022-08-02T16:44:18.554Z,96176.75
2022-08-02T16:47:43.232Z,96188.19
2022-08-02T16:50:53.321Z,96186.38
2022-08-02T16:53:59.438Z,96176.88
2022-08-02T16:57:04.904Z,96182.44
2022-08-02T17:00:10.033Z,96182.25
2022-08-02T17:03:13.057Z,96178.47
2022-08-02T17:06:16.167Z,96190.63
2022-08-02T17:10:03.530Z,96182.13
2022-08-02T17:12:40.492Z,96183.31
2022-08-02T17:16:07.678Z,96180.84
2022-08-02T17:19:04.292Z,96186.34
2022-08-02T17:22:06.003Z,96192.94
2022-08-02T17:25:14.365Z,96187.19
2022-08-02T17:28:16.347Z,96193.22
2022-08-02T17:31:18.078Z,96184.09
2022-08-02T17:34:31.601Z,96188.78
2022-08-02T17:37:33.549Z,96190.66
2022-08-02T17:40:36.810Z,96198.63
2022-08-02T17:43:41.164Z,96193.38
2022-08-02T17:46:42.885Z,96197.75
2022-08-02T17:49:48.624Z,96186.94
2022-08-02T17:52:53.515Z,96197.09
2022-08-02T17:55:55.208Z,96195.94
2022-08-02T17:59:10.001Z,96199.19
2022-08-02T18:02:14.442Z,96207.38
2022-08-02T18:05:16.911Z,96198.81
2022-08-02T18:08:21.607Z,96199.31
2022-08-02T18:11:52.576Z,96198.38
2022-08-02T18:14:49.006Z,96205.44
2022-08-02T18:17:51.230Z,96205.31
2022-08-02T18:20:56.401Z,96205.75
2022-08-02T18:23:59.208Z,96195.72
2022-08-02T18:27:02.072Z,96202.72
2022-08-02T18:30:04.979Z,96209.97
2022-08-02T18:33:58.317Z,96215.31
2022-08-02T18:36:28.176Z,96209.06
2022-08-02T18:39:33.099Z,96212.69
2022-08-02T18:42:34.689Z,96219.91
2022-08-02T18:46:02.323Z,96214.47
2022-08-02T18:48:58.151Z,96215.59
2022-08-02T18:52:08.854Z,96214.53
2022-08-02T18:55:17.371Z,96219.75
2022-08-02T18:58:32.976Z,96219.53
2022-08-02T19:01:39.464Z,96212.38
2022-08-02T19:04:50.314Z,96228.00
2022-08-02T19:07:54.332Z,96230.22
2022-08-02T19:10:57.318Z,96228.03
2022-08-02T19:13:58.988Z,96221.16
2022-08-02T19:17:15.764Z,96232.69
2022-08-02T19:20:22.131Z,96236.97
2022-08-02T19:23:25.340Z,96238.41
2022-08-02T19:26:27.221Z,96240.94
2022-08-02T19:29:48.167Z,96237.66
2022-08-02T19:32:58.713Z,96237.91
2022-08-02T19:36:03.749Z,96239.22
2022-08-02T19:39:06.041Z,96242.16
2022-08-02T19:42:08.047Z,96241.34
2022-08-02T19:45:13.104Z,96244.88
2022-08-02T19:48:15.602Z,96242.75
2022-08-02T19:51:54.855Z,96244.59
2022-08-02T19:58:00.864Z,96246.97
2022-08-02T20:01:03.752Z,96248.81
2022-08-02T20:04:07.419Z,96255.16
2022-08-02T20:07:15.719Z,96253.59
2022-08-02T20:10:27.241Z,96256.63
2022-08-02T20:13:30.660Z,96260.50
2022-08-02T20:16:48.484Z,96257.88
2022-08-02T20:19:52.280Z,96257.75
2022-08-02T20:23:33.742Z,96253.44
2022-08-02T20:26:35.350Z,96259.19
2022-08-02T20:29:44.907Z,96250.50
2022-08-02T20:32:52.677Z,96258.75
2022-08-02T20:35:54.944Z,96256.94
2022-08-02T20:38:56.973Z,96253.22
2022-08-02T20:41:59.581Z,96261.47
2022-08-02T20:45:04.630Z,96249.84
2022-08-02T20:48:06.950Z,96245.31
2022-08-02T20:51:12.018Z,96247.03
2022-08-02T20:54:13.751Z,96246.03
2022-08-02T20:57:48.390Z,96252.59
2022-08-02T21:00:44.409Z,96249.13
2022-08-02T21:03:45.928Z,96250.84
2022-08-02T21:07:00.039Z,96250.09
2022-08-02T21:10:02.169Z,96240.94
2022-08-02T21:13:18.918Z,96249.75
2022-08-02T21:16:25.126Z,96244.38
2022-08-02T21:19:26.920Z,96237.31
2022-08-02T21:22:28.428Z,96238.00
2022-08-02T21:25:51.141Z,96233.44
2022-08-02T21:28:52.801Z,96238.31
2022-08-02T21:31:54.951Z,96235.03
2022-08-02T21:34:56.765Z,96235.09
2022-08-02T21:37:58.473Z,96230.16
2022-08-02T21:41:00.106Z,96237.28
2022-08-02T21:44:06.192Z,96235.25
2022-08-02T21:47:09.178Z,96239.41
2022-08-02T21:50:15.972Z,96240.09
2022-08-02T21:53:18.952Z,96232.84
2022-08-02T21:56:39.529Z,96224.75
2022-08-02T21:59:41.740Z,96237.50
2022-08-02T22:02:47.012Z,96233.50
2022-08-02T22:05:48.592Z,96234.59
2022-08-02T22:08:51.498Z,96239.84
2022-08-02T22:11:53.239Z,96251.94
2022-08-02T22:14:56.305Z,96238.41
2022-08-02T22:18:00.102Z,96231.16
2022-08-02T22:21:01.990Z,96235.34
2022-08-02T22:24:19.609Z,96234.53
2022-08-02T22:28:11.809Z,96238.72
2022-08-02T22:30:54.030Z,96244.78
2022-08-02T22:34:26.751Z,96253.56
2022-08-02T22:38:15.541Z,96247.72
2022-08-02T22:40:51.529Z,96252.31
2022-08-02T22:43:53.052Z,96256.72
2022-08-02T22:46:54.589Z,96263.38
2022-08-02T22:49:59.528Z,96256.53
2022-08-02T22:53:03.128Z,96253.59
2022-08-02T22:56:05.381Z,96256.13
2022-08-02T22:59:05.412Z,96244.13
2022-08-02T23:02:17.841Z,96269.22
2022-08-02T23:05:20.761Z,96263.41
2022-08-02T23:08:22.761Z,96264.00
2022-08-02T23:11:24.368Z,96262.78
2022-08-02T23:14:25.918Z,96266.72
2022-08-02T23:17:46.073Z,96256.34
2022-08-02T23:20:48.781Z,96256.53
2022-08-02T23:23:50.463Z,96252.38
2022-08-02T23:26:52.022Z,96261.97
2022-08-02T23:29:53.538Z,96265.50
2022-08-02T23:32:55.032Z,96268.59
2022-08-02T23:35:56.541Z,96260.28
2022-08-02T23:38:59.815Z,96259.84
2022-08-02T23:42:02.147Z,96271.94
2022-08-02T23:45:03.916Z,96273.38
2022-08-02T23:48:05.531Z,96264.66
2022-08-02T23:51:07.226Z,96262.56
2022-08-02T23:54:09.749Z,96267.38
2022-08-02T23:57:20.976Z,96265.47
